createdAt,value
2017-10-19T00:00:39.936Z,26.55
2017-10-19T00:03:06.243Z,19.92
2017-10-19T00:05:32.580Z,22.27
2017-10-19T00:07:58.867Z,15.95
2017-10-19T00:10:25.208Z,21.80
2017-10-19T00:12:52.283Z,21.77
2017-10-19T00:15:18.972Z,18.33
2017-10-19T00:17:46.060Z,22.77
2017-10-19T00:20:12.461Z,16.98
2017-10-19T00:22:38.790Z,22.55
2017-10-19T00:25:05.115Z,17.87
2017-10-19T00:27:31.473Z,17.80
2017-10-19T00:30:04.806Z,18.50
2017-10-19T00:32:31.181Z,16.65
2017-10-19T00:34:58.263Z,19.92
2017-10-19T00:37:24.652Z,19.75
2017-10-19T00:39:51.716Z,19.83
2017-10-19T00:42:18.082Z,17.73
2017-10-19T00:44:44.447Z,17.58
2017-10-19T00:47:10.771Z,31.85
2017-10-19T00:49:37.187Z,20.17
2017-10-19T00:52:03.542Z,18.73
2017-10-19T00:54:30.670Z,23.62
2017-10-19T00:56:57.064Z,21.85
2017-10-19T00:59:23.443Z,14.45
2017-10-19T01:01:49.824Z,20.30
2017-10-19T01:04:16.177Z,24.65
2017-10-19T01:06:42.571Z,20.10
2017-10-19T01:09:08.932Z,19.12
2017-10-19T01:11:35.278Z,13.95
2017-10-19T01:14:01.642Z,14.98
2017-10-19T01:16:28.762Z,18.02
2017-10-19T01:18:55.239Z,18.05
2017-10-19T01:21:21.597Z,19.92
2017-10-19T01:23:48.054Z,17.62
2017-10-19T01:26:14.417Z,16.20
2017-10-19T01:28:40.877Z,21.02
2017-10-19T01:31:07.244Z,12.32
2017-10-19T01:33:33.626Z,15.07
2017-10-19T01:36:00.021Z,17.05
2017-10-19T01:38:27.150Z,17.00
2017-10-19T01:40:53.534Z,21.70
2017-10-19T01:43:19.915Z,17.77
2017-10-19T01:45:46.309Z,17.50
2017-10-19T01:48:12.692Z,19.55
2017-10-19T01:50:39.796Z,19.92
2017-10-19T01:53:06.133Z,19.60
2017-10-19T01:55:32.453Z,18.87
2017-10-19T01:57:58.782Z,17.58
2017-10-19T02:00:26.009Z,24.50
2017-10-19T02:02:52.326Z,22.20
2017-10-19T02:05:18.692Z,18.23
2017-10-19T02:07:44.988Z,17.83
2017-10-19T02:10:11.284Z,20.90
2017-10-19T02:12:37.596Z,22.02
2017-10-19T02:15:03.937Z,20.08
2017-10-19T02:17:30.212Z,20.77
2017-10-19T02:19:56.553Z,19.65
2017-10-19T02:22:22.842Z,19.10
2017-10-19T02:24:49.935Z,16.08
2017-10-19T02:27:16.229Z,22.37
2017-10-19T02:32:15.320Z,16.02
2017-10-19T02:34:41.587Z,22.60
2017-10-19T02:37:07.868Z,18.73
2017-10-19T02:39:34.170Z,18.23
2017-10-19T02:42:00.426Z,15.75
2017-10-19T02:44:26.725Z,17.55
2017-10-19T02:46:53.035Z,17.87
2017-10-19T02:49:19.333Z,16.17
2017-10-19T02:51:46.384Z,39.25
2017-10-19T02:54:12.681Z,32.00
2017-10-19T02:56:39.002Z,24.63
2017-10-19T02:59:05.335Z,21.35
2017-10-19T03:01:31.639Z,20.50
2017-10-19T03:03:57.928Z,21.77
2017-10-19T03:06:24.267Z,32.08
2017-10-19T03:08:50.590Z,26.92
2017-10-19T03:11:16.869Z,27.87
2017-10-19T03:13:43.192Z,24.10
2017-10-19T03:16:09.490Z,23.67
2017-10-19T03:18:35.850Z,19.17
2017-10-19T03:21:02.133Z,18.80
2017-10-19T03:23:28.424Z,22.13
2017-10-19T03:25:54.728Z,22.35
2017-10-19T03:28:21.033Z,22.70
2017-10-19T03:30:47.335Z,21.83
2017-10-19T03:33:13.622Z,17.37
2017-10-19T03:35:39.962Z,15.73
2017-10-19T03:38:06.242Z,18.12
2017-10-19T03:40:32.536Z,20.90
2017-10-19T03:42:59.583Z,20.50
2017-10-19T03:45:26.637Z,19.20
2017-10-19T03:47:52.978Z,13.62
2017-10-19T03:50:19.309Z,34.67
2017-10-19T03:52:45.597Z,26.67
2017-10-19T03:55:11.928Z,17.55
2017-10-19T03:57:39.037Z,19.85
2017-10-19T04:00:05.352Z,15.75
2017-10-19T04:02:31.615Z,18.98
2017-10-19T04:04:57.911Z,15.88
2017-10-19T04:07:24.177Z,13.25
2017-10-19T04:09:50.465Z,16.58
2017-10-19T04:12:16.724Z,14.13
2017-10-19T04:14:43.028Z,13.48
2017-10-19T04:17:09.302Z,18.02
2017-10-19T04:19:36.396Z,12.85
2017-10-19T04:22:02.674Z,25.15
2017-10-19T04:24:29.698Z,12.55
2017-10-19T04:26:55.982Z,22.17
2017-10-19T04:29:22.265Z,17.50
2017-10-19T04:31:48.558Z,16.08
2017-10-19T04:34:14.846Z,18.30
2017-10-19T04:36:41.935Z,20.75
2017-10-19T04:39:08.227Z,16.02
2017-10-19T04:41:34.543Z,17.37
2017-10-19T04:44:00.842Z,19.90
2017-10-19T04:46:27.108Z,18.95
2017-10-19T04:48:53.400Z,15.48
2017-10-19T04:51:19.747Z,18.10
2017-10-19T04:53:46.794Z,17.42
2017-10-19T04:56:13.853Z,15.77
2017-10-19T04:58:40.892Z,19.27
2017-10-19T05:01:07.969Z,14.55
2017-10-19T05:03:34.243Z,17.65
2017-10-19T05:06:00.535Z,18.95
2017-10-19T05:08:26.825Z,17.92
2017-10-19T05:10:53.147Z,18.17
2017-10-19T05:13:20.224Z,16.30
2017-10-19T05:15:46.803Z,15.95
2017-10-19T05:18:13.146Z,26.87
2017-10-19T05:20:39.537Z,26.35
2017-10-19T05:23:05.880Z,24.90
2017-10-19T05:25:32.207Z,18.48
2017-10-19T05:27:58.509Z,19.67
2017-10-19T05:30:24.821Z,19.25
2017-10-19T05:32:51.114Z,25.77
2017-10-19T05:35:18.170Z,16.20
2017-10-19T05:37:45.192Z,21.05
2017-10-19T05:40:11.496Z,15.85
2017-10-19T05:42:37.795Z,19.83
2017-10-19T05:45:04.099Z,10.52
2017-10-19T05:47:31.121Z,11.07
2017-10-19T05:49:57.438Z,11.85
2017-10-19T05:52:23.709Z,17.40
2017-10-19T05:54:50.795Z,15.50
2017-10-19T05:57:17.080Z,11.55
2017-10-19T05:59:44.125Z,13.18
2017-10-19T06:02:11.172Z,15.13
2017-10-19T06:04:38.183Z,15.05
2017-10-19T06:07:04.497Z,13.25
2017-10-19T06:09:30.785Z,15.98
2017-10-19T06:11:57.802Z,13.00
2017-10-19T06:14:24.091Z,14.10
2017-10-19T06:16:50.405Z,15.55
2017-10-19T06:19:16.736Z,20.23
2017-10-19T06:21:43.018Z,12.50
2017-10-19T06:24:10.033Z,15.07
2017-10-19T06:26:36.334Z,23.58
2017-10-19T06:29:02.647Z,21.08
2017-10-19T06:31:28.945Z,11.10
2017-10-19T06:33:56.325Z,11.45
2017-10-19T06:36:22.616Z,13.48
2017-10-19T06:38:48.923Z,9.02
2017-10-19T06:41:15.243Z,14.60
2017-10-19T06:43:41.550Z,12.90
2017-10-19T06:46:08.175Z,13.52
2017-10-19T06:48:34.489Z,20.10
2017-10-19T06:51:00.791Z,24.30
2017-10-19T06:53:27.079Z,25.08
2017-10-19T06:55:53.355Z,21.50
2017-10-19T06:58:19.883Z,22.62
2017-10-19T07:00:46.177Z,21.80
2017-10-19T07:03:19.347Z,17.90
2017-10-19T07:05:45.655Z,15.52
2017-10-19T07:08:12.086Z,16.62
2017-10-19T07:10:38.455Z,14.30
2017-10-19T07:13:04.780Z,14.55
2017-10-19T07:15:31.057Z,19.17
2017-10-19T07:17:58.091Z,19.03
2017-10-19T07:20:24.514Z,15.90
2017-10-19T07:22:50.794Z,19.03
2017-10-19T07:25:17.119Z,16.40
2017-10-19T07:27:43.432Z,23.43
2017-10-19T07:30:10.497Z,14.60
2017-10-19T07:32:36.828Z,18.80
2017-10-19T07:35:03.139Z,14.07
2017-10-19T07:37:30.200Z,21.50
2017-10-19T07:39:56.529Z,22.13
2017-10-19T07:42:22.875Z,13.20
2017-10-19T07:44:49.150Z,14.33
2017-10-19T07:47:15.417Z,26.50
2017-10-19T07:49:41.716Z,15.73
2017-10-19T07:52:08.797Z,16.33
2017-10-19T07:54:35.100Z,24.27
2017-10-19T07:57:01.371Z,17.23
2017-10-19T07:59:27.695Z,19.52
2017-10-19T08:01:53.973Z,24.10
2017-10-19T08:04:21.020Z,21.33
2017-10-19T08:06:48.068Z,22.67
2017-10-19T08:09:15.112Z,27.87
2017-10-19T08:11:42.161Z,29.55
2017-10-19T08:14:08.432Z,36.95
2017-10-19T08:16:34.777Z,35.13
2017-10-19T08:19:01.182Z,24.08
2017-10-19T08:21:27.513Z,20.85
2017-10-19T08:23:53.842Z,18.87
2017-10-19T08:26:20.906Z,19.62
2017-10-19T08:28:47.174Z,27.52
2017-10-19T08:31:14.554Z,18.67
2017-10-19T08:33:41.587Z,31.45
2017-10-19T08:36:07.889Z,24.50
2017-10-19T08:38:34.192Z,28.70
2017-10-19T08:41:00.481Z,36.10
2017-10-19T08:43:26.823Z,33.80
2017-10-19T08:45:53.116Z,38.63
2017-10-19T08:48:27.139Z,33.83
2017-10-19T08:50:53.414Z,42.20
2017-10-19T08:53:19.744Z,34.20
2017-10-19T08:55:46.050Z,20.77
2017-10-19T08:58:12.317Z,13.30
2017-10-19T09:00:38.630Z,12.70
2017-10-19T09:03:04.960Z,19.97
2017-10-19T09:05:31.257Z,25.13
2017-10-19T09:07:57.555Z,14.57
2017-10-19T09:10:24.607Z,10.93
2017-10-19T09:12:50.916Z,13.30
2017-10-19T09:15:17.296Z,15.30
2017-10-19T09:17:43.575Z,20.37
2017-10-19T09:20:10.587Z,19.00
2017-10-19T09:22:36.983Z,21.17
2017-10-19T09:25:03.334Z,13.17
2017-10-19T09:27:51.744Z,23.20
2017-10-19T09:30:18.119Z,13.07
2017-10-19T09:32:44.443Z,15.60
2017-10-19T09:35:10.769Z,19.40
2017-10-19T09:37:37.047Z,10.10
2017-10-19T09:40:04.135Z,13.77
2017-10-19T09:45:23.696Z,11.73
2017-10-19T09:47:50.030Z,14.37
2017-10-19T09:50:16.374Z,17.70
2017-10-19T09:52:42.691Z,18.60
2017-10-19T09:55:09.010Z,11.70
2017-10-19T09:57:35.361Z,17.40
2017-10-19T10:00:01.711Z,17.57
2017-10-19T10:02:28.025Z,16.33
2017-10-19T10:04:54.363Z,16.43
2017-10-19T10:07:20.682Z,15.33
2017-10-19T10:09:46.988Z,16.83
2017-10-19T10:12:13.359Z,13.40
2017-10-19T10:14:39.616Z,13.37
2017-10-19T10:17:05.932Z,15.50
2017-10-19T10:19:32.268Z,11.40
2017-10-19T10:21:58.599Z,14.17
2017-10-19T10:24:24.921Z,18.40
2017-10-19T10:26:51.265Z,14.60
2017-10-19T10:29:18.311Z,18.17
2017-10-19T10:31:45.359Z,13.73
2017-10-19T10:34:12.415Z,14.37
2017-10-19T10:36:39.476Z,13.93
2017-10-19T10:39:05.811Z,20.83
2017-10-19T10:41:32.111Z,12.07
2017-10-19T10:43:59.228Z,13.13
2017-10-19T10:46:25.540Z,17.80
2017-10-19T10:48:51.895Z,15.93
2017-10-19T10:51:18.230Z,16.50
2017-10-19T10:53:44.532Z,13.27
2017-10-19T10:56:10.843Z,21.80
2017-10-19T10:58:37.182Z,18.40
2017-10-19T11:01:03.572Z,10.00
2017-10-19T11:03:29.879Z,13.43
2017-10-19T11:05:56.922Z,7.70
2017-10-19T11:08:23.185Z,9.47
2017-10-19T11:10:49.528Z,11.27
2017-10-19T11:13:15.818Z,11.73
2017-10-19T11:15:42.835Z,12.80
2017-10-19T11:18:09.135Z,8.13
2017-10-19T11:20:35.451Z,10.70
2017-10-19T11:23:01.759Z,10.30
2017-10-19T11:25:28.061Z,6.30
2017-10-19T11:27:54.726Z,6.50
2017-10-19T11:30:21.019Z,8.37
2017-10-19T11:32:47.309Z,14.50
2017-10-19T11:35:13.672Z,7.37
2017-10-19T11:37:39.998Z,5.53
2017-10-19T11:40:06.328Z,20.70
2017-10-19T11:42:32.636Z,10.30
2017-10-19T11:44:58.946Z,12.20
2017-10-19T11:47:25.228Z,6.57
2017-10-19T11:49:51.489Z,9.30
2017-10-19T11:52:17.798Z,15.70
2017-10-19T11:54:44.820Z,7.50
2017-10-19T11:57:11.128Z,6.77
2017-10-19T11:59:37.442Z,14.20
2017-10-19T12:02:03.795Z,7.00
2017-10-19T12:04:30.080Z,6.00
2017-10-19T12:06:56.381Z,7.67
2017-10-19T12:09:23.422Z,10.77
2017-10-19T12:11:50.504Z,5.70
2017-10-19T12:14:16.797Z,7.53
2017-10-19T12:16:43.842Z,6.70
2017-10-19T12:19:10.157Z,10.77
2017-10-19T12:21:36.453Z,12.93
2017-10-19T12:24:02.786Z,4.90
2017-10-19T12:26:29.107Z,7.60
2017-10-19T12:28:55.386Z,10.20
2017-10-19T12:31:22.473Z,14.40
2017-10-19T12:33:48.806Z,6.20
2017-10-19T12:36:15.086Z,8.50
2017-10-19T12:38:41.406Z,6.57
2017-10-19T12:41:07.678Z,11.30
2017-10-19T12:43:34.014Z,12.47
2017-10-19T12:46:00.307Z,14.20
2017-10-19T12:48:26.648Z,5.57
2017-10-19T12:50:59.802Z,9.60
2017-10-19T12:53:26.574Z,9.40
2017-10-19T12:55:52.874Z,10.27
2017-10-19T12:58:19.926Z,9.50
2017-10-19T13:00:46.227Z,8.20
2017-10-19T13:03:12.573Z,10.20
2017-10-19T13:05:38.908Z,8.63
2017-10-19T13:08:06.694Z,9.80
2017-10-19T13:10:33.746Z,9.53
2017-10-19T13:13:00.059Z,8.90
2017-10-19T13:15:27.114Z,7.57
2017-10-19T13:17:54.141Z,10.70
2017-10-19T13:20:21.180Z,8.13
2017-10-19T13:22:47.514Z,10.20
2017-10-19T13:25:13.814Z,9.47
2017-10-19T13:27:40.120Z,8.87
2017-10-19T13:30:06.436Z,10.77
2017-10-19T13:32:32.755Z,15.60
2017-10-19T13:34:59.053Z,10.83
2017-10-19T13:37:25.361Z,21.63
2017-10-19T13:39:51.676Z,11.10
2017-10-19T13:42:17.989Z,8.47
2017-10-19T13:44:45.038Z,14.23
2017-10-19T13:47:11.336Z,9.27
2017-10-19T13:49:37.640Z,15.03
2017-10-19T13:52:04.773Z,13.13
2017-10-19T13:54:31.135Z,17.37
2017-10-19T13:56:58.166Z,11.40
2017-10-19T13:59:24.446Z,14.13
2017-10-19T14:01:50.778Z,13.87
2017-10-19T14:04:17.959Z,13.70
2017-10-19T14:06:44.283Z,15.20
2017-10-19T14:09:10.586Z,16.20
2017-10-19T14:11:36.897Z,16.27
2017-10-19T14:14:03.227Z,21.30
2017-10-19T14:16:29.541Z,25.10
2017-10-19T14:18:56.126Z,22.20
2017-10-19T14:21:22.455Z,18.80
2017-10-19T14:23:48.758Z,19.40
2017-10-19T14:26:15.081Z,15.73
2017-10-19T14:28:41.409Z,22.53
2017-10-19T14:31:07.740Z,21.47
2017-10-19T14:33:34.029Z,21.40
2017-10-19T14:36:01.057Z,23.13
2017-10-19T14:38:27.404Z,29.47
2017-10-19T14:40:54.024Z,22.43
2017-10-19T14:43:20.308Z,22.47
2017-10-19T14:45:46.636Z,29.37
2017-10-19T14:48:12.941Z,21.63
2017-10-19T14:50:39.269Z,23.60
2017-10-19T14:53:05.611Z,25.03
2017-10-19T14:55:31.911Z,19.50
2017-10-19T14:57:58.964Z,25.27
2017-10-19T15:00:26.004Z,19.33
2017-10-19T15:02:52.414Z,21.57
2017-10-19T15:05:18.717Z,19.60
2017-10-19T15:07:45.023Z,19.17
2017-10-19T15:10:11.342Z,20.33
2017-10-19T15:12:37.650Z,20.57
2017-10-19T15:15:04.751Z,24.57
2017-10-19T15:17:31.055Z,16.40
2017-10-19T15:19:57.347Z,13.97
2017-10-19T15:22:24.394Z,19.87
2017-10-19T15:24:51.454Z,18.07
2017-10-19T15:27:17.729Z,20.17
2017-10-19T15:29:44.048Z,22.73
2017-10-19T15:32:10.378Z,25.50
2017-10-19T15:34:36.698Z,21.80
2017-10-19T15:37:03.706Z,19.23
2017-10-19T15:39:30.034Z,26.13
2017-10-19T15:41:57.091Z,29.70
2017-10-19T15:44:23.394Z,44.80
2017-10-19T15:46:50.533Z,25.17
2017-10-19T15:49:16.808Z,28.70
2017-10-19T15:51:43.117Z,32.40
2017-10-19T15:54:10.205Z,36.37
2017-10-19T15:56:36.504Z,34.33
2017-10-19T15:59:02.820Z,34.60
2017-10-19T16:01:29.154Z,34.33
2017-10-19T16:03:55.538Z,35.63
2017-10-19T16:06:21.802Z,36.90
2017-10-19T16:08:48.843Z,39.93
2017-10-19T16:11:15.911Z,44.33
2017-10-19T16:13:42.228Z,46.03
2017-10-19T16:16:08.568Z,49.07
2017-10-19T16:18:34.871Z,45.33
2017-10-19T16:21:01.933Z,50.27
2017-10-19T16:23:28.279Z,52.40
2017-10-19T16:25:54.581Z,51.03
2017-10-19T16:28:21.657Z,47.23
2017-10-19T16:30:48.019Z,43.73
2017-10-19T16:33:14.360Z,44.33
2017-10-19T16:35:40.669Z,46.60
2017-10-19T16:38:07.364Z,41.33
2017-10-19T16:40:33.682Z,49.27
2017-10-19T16:43:00.053Z,48.70
2017-10-19T16:45:26.357Z,44.93
2017-10-19T16:47:52.693Z,44.73
2017-10-19T16:50:19.021Z,46.00
2017-10-19T16:52:45.309Z,41.63
2017-10-19T16:55:11.647Z,47.83
2017-10-19T17:00:38.396Z,44.33
2017-10-19T17:03:05.587Z,41.87
2017-10-19T17:05:31.977Z,50.10
2017-10-19T17:07:59.063Z,50.60
2017-10-19T17:10:26.149Z,54.70
2017-10-19T17:12:52.486Z,53.13
2017-10-19T17:15:18.836Z,49.87
2017-10-19T17:17:45.911Z,46.17
2017-10-19T17:20:12.216Z,49.50
2017-10-19T17:22:39.265Z,50.67
2017-10-19T17:25:06.312Z,61.97
2017-10-19T17:27:32.648Z,55.23
2017-10-19T17:29:58.978Z,45.90
2017-10-19T17:32:25.299Z,47.17
2017-10-19T17:34:51.662Z,52.20
2017-10-19T17:37:17.994Z,54.50
2017-10-19T17:39:44.419Z,57.07
2017-10-19T17:42:10.752Z,48.13
2017-10-19T17:44:37.087Z,54.33
2017-10-19T17:47:03.439Z,58.57
2017-10-19T17:49:29.832Z,50.37
2017-10-19T17:51:56.192Z,56.63
2017-10-19T17:54:22.536Z,49.70
2017-10-19T17:56:49.699Z,53.43
2017-10-19T17:59:16.784Z,57.13
2017-10-19T18:01:43.117Z,61.80
2017-10-19T18:04:09.472Z,56.80
2017-10-19T18:06:35.968Z,59.47
2017-10-19T18:09:02.423Z,55.10
2017-10-19T18:11:28.862Z,58.70
2017-10-19T18:13:55.290Z,57.80
2017-10-19T18:16:21.652Z,63.73
2017-10-19T18:18:48.107Z,66.40
2017-10-19T18:21:14.504Z,60.47
2017-10-19T18:23:40.904Z,63.23
2017-10-19T18:26:07.312Z,59.13
2017-10-19T18:28:33.695Z,56.80
2017-10-19T18:31:00.104Z,60.33
2017-10-19T18:33:26.847Z,68.67
2017-10-19T18:35:53.247Z,63.07
2017-10-19T18:38:19.659Z,61.47
2017-10-19T18:40:46.126Z,54.03
2017-10-19T18:43:12.560Z,61.20
2017-10-19T18:45:39.013Z,56.63
2017-10-19T18:48:05.392Z,61.57
2017-10-19T18:50:31.795Z,56.50
2017-10-19T18:52:58.913Z,57.87
2017-10-19T18:55:25.342Z,63.23
2017-10-19T18:57:51.751Z,59.70
2017-10-19T19:00:18.351Z,60.23
2017-10-19T19:02:44.838Z,54.20
2017-10-19T19:05:11.264Z,65.90
2017-10-19T19:07:37.734Z,64.23
2017-10-19T19:10:04.985Z,60.63
2017-10-19T19:12:32.128Z,66.90
2017-10-19T19:14:59.221Z,57.20
2017-10-19T19:17:25.631Z,53.47
2017-10-19T19:19:52.049Z,65.40
2017-10-19T19:22:18.490Z,69.12
2017-10-19T19:24:44.926Z,62.73
2017-10-19T19:27:11.362Z,61.90
2017-10-19T19:29:37.741Z,59.28
2017-10-19T19:32:04.208Z,67.10
2017-10-19T19:34:30.737Z,64.30
2017-10-19T19:36:57.184Z,57.83
2017-10-19T19:39:23.547Z,56.22
2017-10-19T19:41:49.997Z,58.03
2017-10-19T19:44:16.399Z,66.47
2017-10-19T19:46:42.859Z,75.87
2017-10-19T19:49:09.297Z,64.40
2017-10-19T19:51:35.722Z,66.12
2017-10-19T19:54:02.121Z,65.05
2017-10-19T19:56:28.522Z,72.53
2017-10-19T19:58:54.946Z,78.05
2017-10-19T20:01:21.387Z,87.20
2017-10-19T20:03:47.859Z,74.82
2017-10-19T20:06:14.288Z,81.10
2017-10-19T20:08:41.048Z,88.22
2017-10-19T20:11:08.180Z,75.82
2017-10-19T20:13:34.605Z,72.40
2017-10-19T20:16:01.034Z,69.45
2017-10-19T20:18:27.401Z,69.20
2017-10-19T20:20:54.813Z,65.30
2017-10-19T20:23:21.172Z,74.68
2017-10-19T20:25:47.505Z,73.72
2017-10-19T20:28:13.893Z,67.50
2017-10-19T20:30:40.190Z,71.60
2017-10-19T20:33:06.909Z,72.43
2017-10-19T20:35:33.992Z,69.70
2017-10-19T20:38:00.339Z,66.97
2017-10-19T20:40:26.699Z,76.57
2017-10-19T20:42:53.042Z,74.15
2017-10-19T20:45:19.399Z,75.93
2017-10-19T20:47:45.730Z,72.10
2017-10-19T20:50:12.086Z,90.10
2017-10-19T20:52:38.443Z,79.32
2017-10-19T20:55:04.793Z,75.57
2017-10-19T20:57:31.869Z,79.12
2017-10-19T21:02:32.171Z,65.12
2017-10-19T21:04:58.468Z,66.30
2017-10-19T21:07:24.799Z,70.90
2017-10-19T21:09:51.093Z,65.22
2017-10-19T21:12:17.430Z,62.97
2017-10-19T21:14:43.737Z,59.65
2017-10-19T21:17:10.075Z,83.37
2017-10-19T21:19:36.393Z,70.65
2017-10-19T21:22:02.711Z,66.85
2017-10-19T21:24:29.781Z,66.72
2017-10-19T21:26:56.066Z,62.13
2017-10-19T21:29:22.400Z,63.25
2017-10-19T21:31:48.725Z,64.80
2017-10-19T21:34:15.035Z,70.95
2017-10-19T21:36:41.380Z,59.95
2017-10-19T21:39:08.420Z,69.47
2017-10-19T21:41:34.737Z,62.92
2017-10-19T21:44:01.060Z,60.40
2017-10-19T21:46:27.397Z,72.20
2017-10-19T21:48:53.698Z,64.28
2017-10-19T21:51:20.064Z,64.90
2017-10-19T21:53:46.411Z,77.45
2017-10-19T21:56:13.471Z,67.80
2017-10-19T21:58:40.526Z,64.75
2017-10-19T22:01:07.576Z,63.60
2017-10-19T22:03:33.969Z,62.30
2017-10-19T22:06:00.294Z,76.12
2017-10-19T22:08:26.613Z,58.92
2017-10-19T22:10:53.209Z,56.80
2017-10-19T22:13:19.506Z,62.95
2017-10-19T22:15:45.803Z,61.67
2017-10-19T22:18:12.123Z,54.85
2017-10-19T22:20:38.435Z,58.20
2017-10-19T22:23:04.761Z,50.92
2017-10-19T22:25:31.069Z,53.55
2017-10-19T22:27:58.121Z,51.92
2017-10-19T22:30:24.432Z,59.03
2017-10-19T22:32:51.487Z,50.90
2017-10-19T22:35:18.524Z,50.42
2017-10-19T22:37:45.565Z,56.00
2017-10-19T22:40:12.660Z,62.45
2017-10-19T22:42:38.964Z,56.47
2017-10-19T22:45:05.266Z,53.15
2017-10-19T22:47:32.332Z,64.28
2017-10-19T22:49:58.636Z,69.00
2017-10-19T22:52:25.998Z,83.45
2017-10-19T22:54:53.042Z,114.03
2017-10-19T22:57:20.067Z,77.78
2017-10-19T22:59:46.413Z,67.47
2017-10-19T23:02:16.038Z,65.45
2017-10-19T23:04:42.371Z,66.10
2017-10-19T23:07:08.671Z,70.00
2017-10-19T23:09:35.710Z,66.18
2017-10-19T23:12:02.010Z,60.05
2017-10-19T23:14:28.320Z,58.22
2017-10-19T23:16:54.662Z,61.80
2017-10-19T23:19:20.933Z,61.90
2017-10-19T23:21:47.994Z,56.15
2017-10-19T23:24:15.032Z,53.42
2017-10-19T23:26:42.093Z,60.33
2017-10-19T23:29:08.740Z,53.17
2017-10-19T23:31:35.035Z,65.37
2017-10-19T23:34:02.098Z,63.58
2017-10-19T23:36:28.437Z,68.57
2017-10-19T23:38:54.719Z,65.12
2017-10-19T23:41:21.032Z,68.10
2017-10-19T23:43:47.329Z,62.92
2017-10-19T23:46:13.642Z,56.88
2017-10-19T23:48:41.106Z,53.25
2017-10-19T23:51:07.436Z,63.97
2017-10-19T23:53:33.721Z,60.58
2017-10-19T23:56:00.043Z,52.92
2017-10-19T23:58:26.343Z,53.67
